sensor_id;sensor_type;location;lat;lon;timestamp;pressure;altitude;pressure_sealevel;temperature;humidity
5755;BME280;2902;42.130;24.732;2023-04-28T00:01:41;99695.22;;;11.85;51.23
5755;BME280;2902;42.130;24.732;2023-04-28T00:04:08;99686.78;;;11.82;51.24
5755;BME280;2902;42.130;24.732;2023-04-28T00:06:34;99690.72;;;11.92;50.70
5755;BME280;2902;42.130;24.732;2023-04-28T00:09:01;99694.00;;;11.94;50.02
5755;BME280;2902;42.130;24.732;2023-04-28T00:11:28;99692.38;;;11.93;51.03
5755;BME280;2902;42.130;24.732;2023-04-28T00:13:56;99685.38;;;11.86;51.57
5755;BME280;2902;42.130;24.732;2023-04-28T00:16:23;99687.63;;;11.82;51.90
5755;BME280;2902;42.130;24.732;2023-04-28T00:18:50;99683.28;;;11.75;51.54
5755;BME280;2902;42.130;24.732;2023-04-28T00:21:17;99685.75;;;11.76;51.28
5755;BME280;2902;42.130;24.732;2023-04-28T00:23:43;99685.75;;;11.76;50.94
5755;BME280;2902;42.130;24.732;2023-04-28T00:26:10;99684.75;;;11.77;51.18
5755;BME280;2902;42.130;24.732;2023-04-28T00:28:37;99685.81;;;11.89;51.19
5755;BME280;2902;42.130;24.732;2023-04-28T00:31:10;99678.44;;;11.91;50.86
5755;BME280;2902;42.130;24.732;2023-04-28T00:33:37;99682.06;;;11.71;50.34
5755;BME280;2902;42.130;24.732;2023-04-28T00:36:05;99678.38;;;11.78;50.31
5755;BME280;2902;42.130;24.732;2023-04-28T00:38:32;99682.84;;;11.71;49.21
5755;BME280;2902;42.130;24.732;2023-04-28T00:40:59;99683.16;;;11.55;49.57
5755;BME280;2902;42.130;24.732;2023-04-28T00:43:26;99674.97;;;11.50;49.32
5755;BME280;2902;42.130;24.732;2023-04-28T00:45:53;99680.59;;;11.34;49.93
5755;BME280;2902;42.130;24.732;2023-04-28T00:48:21;99678.56;;;11.30;49.93
5755;BME280;2902;42.130;24.732;2023-04-28T00:50:49;99682.22;;;11.35;49.92
5755;BME280;2902;42.130;24.732;2023-04-28T00:53:16;99675.22;;;11.21;50.02
5755;BME280;2902;42.130;24.732;2023-04-28T00:55:44;99678.91;;;11.20;50.53
5755;BME280;2902;42.130;24.732;2023-04-28T00:58:12;99677.00;;;11.14;50.95
5755;BME280;2902;42.130;24.732;2023-04-28T01:00:39;99683.88;;;11.30;51.08
5755;BME280;2902;42.130;24.732;2023-04-28T01:03:05;99684.25;;;11.27;51.08
5755;BME280;2902;42.130;24.732;2023-04-28T01:05:34;99678.91;;;11.20;51.38
5755;BME280;2902;42.130;24.732;2023-04-28T01:08:02;99682.50;;;11.13;51.81
5755;BME280;2902;42.130;24.732;2023-04-28T01:10:29;99684.84;;;10.94;52.47
5755;BME280;2902;42.130;24.732;2023-04-28T01:12:55;99684.81;;;10.88;52.75
5755;BME280;2902;42.130;24.732;2023-04-28T01:15:22;99689.69;;;10.84;53.35
5755;BME280;2902;42.130;24.732;2023-04-28T01:17:49;99692.53;;;10.83;53.50
5755;BME280;2902;42.130;24.732;2023-04-28T01:20:15;99696.03;;;10.90;53.82
5755;BME280;2902;42.130;24.732;2023-04-28T01:22:43;99699.88;;;10.81;54.12
5755;BME280;2902;42.130;24.732;2023-04-28T01:25:12;99690.25;;;10.80;54.09
5755;BME280;2902;42.130;24.732;2023-04-28T01:27:38;99690.25;;;10.80;54.45
5755;BME280;2902;42.130;24.732;2023-04-28T01:30:06;99687.38;;;10.75;54.51
5755;BME280;2902;42.130;24.732;2023-04-28T01:32:33;99684.25;;;10.71;54.69
5755;BME280;2902;42.130;24.732;2023-04-28T01:35:00;99678.50;;;10.68;54.52
5755;BME280;2902;42.130;24.732;2023-04-28T01:37:27;99680.22;;;10.54;54.66
5755;BME280;2902;42.130;24.732;2023-04-28T01:39:53;99674.84;;;10.48;54.89
5755;BME280;2902;42.130;24.732;2023-04-28T01:42:21;99690.53;;;10.43;54.74
5755;BME280;2902;42.130;24.732;2023-04-28T01:44:48;99688.03;;;10.35;55.06
5755;BME280;2902;42.130;24.732;2023-04-28T01:47:15;99686.75;;;10.31;55.37
5755;BME280;2902;42.130;24.732;2023-04-28T01:49:41;99688.38;;;10.32;55.17
5755;BME280;2902;42.130;24.732;2023-04-28T01:52:08;99698.50;;;10.22;55.47
5755;BME280;2902;42.130;24.732;2023-04-28T01:54:35;99695.41;;;10.04;56.25
5755;BME280;2902;42.130;24.732;2023-04-28T01:57:01;99697.09;;;10.05;56.26
5755;BME280;2902;42.130;24.732;2023-04-28T01:59:29;99697.19;;;10.11;55.21
5755;BME280;2902;42.130;24.732;2023-04-28T02:01:56;99696.44;;;10.03;55.58
5755;BME280;2902;42.130;24.732;2023-04-28T02:04:23;99693.63;;;9.90;56.33
5755;BME280;2902;42.130;24.732;2023-04-28T02:06:49;99697.00;;;9.84;56.46
5755;BME280;2902;42.130;24.732;2023-04-28T02:09:16;99701.44;;;9.77;56.57
5755;BME280;2902;42.130;24.732;2023-04-28T02:11:43;99711.03;;;9.78;56.19
5755;BME280;2902;42.130;24.732;2023-04-28T02:14:09;99716.53;;;9.76;56.27
5755;BME280;2902;42.130;24.732;2023-04-28T02:16:37;99714.81;;;9.69;55.88
5755;BME280;2902;42.130;24.732;2023-04-28T02:19:04;99716.63;;;9.68;56.82
5755;BME280;2902;42.130;24.732;2023-04-28T02:21:31;99708.03;;;9.66;56.67
5755;BME280;2902;42.130;24.732;2023-04-28T02:23:57;99719.84;;;9.64;56.65
5755;BME280;2902;42.130;24.732;2023-04-28T02:26:24;99717.38;;;9.62;56.16
5755;BME280;2902;42.130;24.732;2023-04-28T02:28:51;99727.59;;;9.51;57.21
5755;BME280;2902;42.130;24.732;2023-04-28T02:31:18;99733.09;;;9.49;56.60
5755;BME280;2902;42.130;24.732;2023-04-28T02:33:46;99728.25;;;9.53;57.11
5755;BME280;2902;42.130;24.732;2023-04-28T02:36:14;99732.63;;;9.46;57.01
5755;BME280;2902;42.130;24.732;2023-04-28T02:38:40;99735.56;;;9.36;57.01
5755;BME280;2902;42.130;24.732;2023-04-28T02:41:07;99740.13;;;9.28;56.46
5755;BME280;2902;42.130;24.732;2023-04-28T02:43:34;99733.81;;;9.29;56.83
5755;BME280;2902;42.130;24.732;2023-04-28T02:46:02;99724.03;;;9.15;56.40
5755;BME280;2902;42.130;24.732;2023-04-28T02:48:29;99739.88;;;9.23;56.92
5755;BME280;2902;42.130;24.732;2023-04-28T02:50:57;99738.19;;;9.22;56.34
5755;BME280;2902;42.130;24.732;2023-04-28T02:53:23;99735.94;;;9.19;56.52
5755;BME280;2902;42.130;24.732;2023-04-28T02:55:50;99732.00;;;9.15;56.73
5755;BME280;2902;42.130;24.732;2023-04-28T02:58:17;99729.25;;;9.08;56.51
5755;BME280;2902;42.130;24.732;2023-04-28T03:00:44;99735.53;;;9.07;56.91
5755;BME280;2902;42.130;24.732;2023-04-28T03:03:11;99731.97;;;9.00;56.48
5755;BME280;2902;42.130;24.732;2023-04-28T03:05:37;99727.03;;;8.97;56.97
5755;BME280;2902;42.130;24.732;2023-04-28T03:08:06;99738.88;;;8.87;56.70
5755;BME280;2902;42.130;24.732;2023-04-28T03:10:32;99732.13;;;8.84;56.79
5755;BME280;2902;42.130;24.732;2023-04-28T03:12:59;99740.00;;;8.92;56.40
5755;BME280;2902;42.130;24.732;2023-04-28T03:15:26;99736.69;;;8.90;56.17
5755;BME280;2902;42.130;24.732;2023-04-28T03:17:52;99735.50;;;8.93;56.17
5755;BME280;2902;42.130;24.732;2023-04-28T03:20:19;99739.88;;;8.86;56.38
5755;BME280;2902;42.130;24.732;2023-04-28T03:22:46;99740.88;;;8.85;56.09
5755;BME280;2902;42.130;24.732;2023-04-28T03:25:14;99741.53;;;8.87;56.19
5755;BME280;2902;42.130;24.732;2023-04-28T03:27:40;99743.06;;;8.81;55.93
5755;BME280;2902;42.130;24.732;2023-04-28T03:30:08;99754.09;;;8.85;56.31
5755;BME280;2902;42.130;24.732;2023-04-28T03:32:35;99755.06;;;8.92;55.56
5755;BME280;2902;42.130;24.732;2023-04-28T03:35:01;99769.59;;;8.96;55.34
5755;BME280;2902;42.130;24.732;2023-04-28T03:37:28;99774.09;;;9.10;55.04
5755;BME280;2902;42.130;24.732;2023-04-28T03:39:55;99784.69;;;9.10;54.67
5755;BME280;2902;42.130;24.732;2023-04-28T03:42:23;99783.97;;;9.16;54.18
5755;BME280;2902;42.130;24.732;2023-04-28T03:44:49;99792.41;;;9.34;54.29
5755;BME280;2902;42.130;24.732;2023-04-28T03:47:16;99794.53;;;9.53;52.61
5755;BME280;2902;42.130;24.732;2023-04-28T03:49:43;99806.06;;;9.89;51.88
5755;BME280;2902;42.130;24.732;2023-04-28T03:52:09;99807.09;;;10.52;50.91
5755;BME280;2902;42.130;24.732;2023-04-28T03:54:36;99808.41;;;11.05;48.78
5755;BME280;2902;42.130;24.732;2023-04-28T03:57:03;99825.09;;;11.41;47.28
5755;BME280;2902;42.130;24.732;2023-04-28T03:59:31;99820.94;;;11.87;45.95
5755;BME280;2902;42.130;24.732;2023-04-28T04:01:58;99830.41;;;12.03;44.70
5755;BME280;2902;42.130;24.732;2023-04-28T04:04:25;99830.00;;;12.46;43.29
5755;BME280;2902;42.130;24.732;2023-04-28T04:06:51;99838.53;;;12.95;42.53
5755;BME280;2902;42.130;24.732;2023-04-28T04:09:18;99838.41;;;13.29;41.40
5755;BME280;2902;42.130;24.732;2023-04-28T04:11:45;99833.47;;;13.59;40.81
5755;BME280;2902;42.130;24.732;2023-04-28T04:14:11;99836.44;;;14.08;39.94
5755;BME280;2902;42.130;24.732;2023-04-28T04:16:39;99851.63;;;14.20;38.62
5755;BME280;2902;42.130;24.732;2023-04-28T04:19:06;99858.84;;;14.70;38.44
5755;BME280;2902;42.130;24.732;2023-04-28T04:21:33;99855.97;;;15.34;36.66
5755;BME280;2902;42.130;24.732;2023-04-28T04:24:00;99856.47;;;15.73;36.13
5755;BME280;2902;42.130;24.732;2023-04-28T04:26:26;99863.16;;;16.07;35.48
5755;BME280;2902;42.130;24.732;2023-04-28T04:28:53;99861.53;;;16.24;34.71
5755;BME280;2902;42.130;24.732;2023-04-28T04:31:20;99869.41;;;16.37;34.70
5755;BME280;2902;42.130;24.732;2023-04-28T04:33:48;99868.38;;;16.74;33.21
5755;BME280;2902;42.130;24.732;2023-04-28T04:36:15;99864.72;;;16.87;33.56
5755;BME280;2902;42.130;24.732;2023-04-28T04:38:41;99871.44;;;16.78;32.97
5755;BME280;2902;42.130;24.732;2023-04-28T04:41:08;99870.78;;;16.46;33.40
5755;BME280;2902;42.130;24.732;2023-04-28T04:43:35;99874.41;;;16.34;33.91
5755;BME280;2902;42.130;24.732;2023-04-28T04:46:01;99866.69;;;16.26;34.17
5755;BME280;2902;42.130;24.732;2023-04-28T04:48:28;99875.84;;;16.36;33.72
5755;BME280;2902;42.130;24.732;2023-04-28T04:50:57;99876.28;;;16.33;33.93
5755;BME280;2902;42.130;24.732;2023-04-28T04:53:23;99883.97;;;16.48;33.32
5755;BME280;2902;42.130;24.732;2023-04-28T04:55:50;99887.09;;;17.22;33.84
5755;BME280;2902;42.130;24.732;2023-04-28T04:58:17;99895.59;;;17.48;32.54
5755;BME280;2902;42.130;24.732;2023-04-28T05:00:43;99895.75;;;17.53;33.13
5755;BME280;2902;42.130;24.732;2023-04-28T05:03:10;99895.31;;;17.79;35.14
5755;BME280;2902;42.130;24.732;2023-04-28T05:05:37;99899.59;;;18.72;36.29
5755;BME280;2902;42.130;24.732;2023-04-28T05:08:05;99910.13;;;19.30;29.63
5755;BME280;2902;42.130;24.732;2023-04-28T05:10:32;99915.16;;;19.71;29.87
5755;BME280;2902;42.130;24.732;2023-04-28T05:12:59;99915.50;;;19.91;30.46
5755;BME280;2902;42.130;24.732;2023-04-28T05:15:26;99914.28;;;20.53;28.52
5755;BME280;2902;42.130;24.732;2023-04-28T05:17:53;99914.19;;;20.26;28.05
5755;BME280;2902;42.130;24.732;2023-04-28T05:20:20;99910.84;;;20.19;28.34
5755;BME280;2902;42.130;24.732;2023-04-28T05:22:46;99921.19;;;19.45;28.45
5755;BME280;2902;42.130;24.732;2023-04-28T05:25:15;99910.41;;;19.61;28.93
5755;BME280;2902;42.130;24.732;2023-04-28T05:27:41;99911.88;;;19.36;29.01
5755;BME280;2902;42.130;24.732;2023-04-28T05:30:09;99918.03;;;19.20;29.30
5755;BME280;2902;42.130;24.732;2023-04-28T05:32:36;99916.50;;;19.12;29.46
5755;BME280;2902;42.130;24.732;2023-04-28T05:35:03;99919.81;;;18.63;29.97
5755;BME280;2902;42.130;24.732;2023-04-28T05:37:30;99916.34;;;17.94;30.58
5755;BME280;2902;42.130;24.732;2023-04-28T05:39:57;99917.41;;;18.04;31.01
5755;BME280;2902;42.130;24.732;2023-04-28T05:42:25;99923.84;;;19.00;33.35
5755;BME280;2902;42.130;24.732;2023-04-28T05:44:52;99931.16;;;18.77;29.21
5755;BME280;2902;42.130;24.732;2023-04-28T05:47:18;99929.22;;;17.92;30.41
5755;BME280;2902;42.130;24.732;2023-04-28T05:49:45;99936.47;;;18.03;30.51
5755;BME280;2902;42.130;24.732;2023-04-28T05:52:12;99934.94;;;18.07;30.50
5755;BME280;2902;42.130;24.732;2023-04-28T05:54:38;99942.88;;;18.59;29.83
5755;BME280;2902;42.130;24.732;2023-04-28T05:57:06;99938.44;;;18.65;29.88
5755;BME280;2902;42.130;24.732;2023-04-28T05:59:34;99934.69;;;18.77;31.67
5755;BME280;2902;42.130;24.732;2023-04-28T06:02:01;99945.56;;;19.10;30.13
5755;BME280;2902;42.130;24.732;2023-04-28T06:04:27;99953.47;;;18.89;29.53
5755;BME280;2902;42.130;24.732;2023-04-28T06:06:54;99947.13;;;18.55;29.64
5755;BME280;2902;42.130;24.732;2023-04-28T06:09:21;99943.06;;;19.48;29.48
5755;BME280;2902;42.130;24.732;2023-04-28T06:11:47;99943.31;;;20.24;27.74
5755;BME280;2902;42.130;24.732;2023-04-28T06:14:15;99948.44;;;19.93;27.79
5755;BME280;2902;42.130;24.732;2023-04-28T06:16:43;99947.22;;;20.17;28.96
5755;BME280;2902;42.130;24.732;2023-04-28T06:19:09;99942.94;;;19.55;28.22
5755;BME280;2902;42.130;24.732;2023-04-28T06:21:36;99942.78;;;19.94;28.03
5755;BME280;2902;42.130;24.732;2023-04-28T06:24:03;99946.38;;;19.67;31.05
5755;BME280;2902;42.130;24.732;2023-04-28T06:26:30;99953.56;;;19.78;28.46
5755;BME280;2902;42.130;24.732;2023-04-28T06:28:56;99939.56;;;19.20;29.35
5755;BME280;2902;42.130;24.732;2023-04-28T06:31:23;99946.31;;;18.94;29.70
5755;BME280;2902;42.130;24.732;2023-04-28T06:33:51;99940.19;;;18.71;30.26
5755;BME280;2902;42.130;24.732;2023-04-28T06:36:18;99943.13;;;19.98;29.92
5755;BME280;2902;42.130;24.732;2023-04-28T06:38:45;99946.19;;;20.78;28.54
5755;BME280;2902;42.130;24.732;2023-04-28T06:41:12;99936.69;;;21.40;29.98
5755;BME280;2902;42.130;24.732;2023-04-28T06:43:38;99951.56;;;21.42;27.06
5755;BME280;2902;42.130;24.732;2023-04-28T06:46:05;99947.50;;;21.18;29.13
5755;BME280;2902;42.130;24.732;2023-04-28T06:48:32;99949.78;;;21.26;27.45
5755;BME280;2902;42.130;24.732;2023-04-28T06:51:00;99947.69;;;20.90;27.71
5755;BME280;2902;42.130;24.732;2023-04-28T06:53:27;99945.06;;;20.35;27.69
5755;BME280;2902;42.130;24.732;2023-04-28T06:55:54;99947.88;;;19.74;30.47
5755;BME280;2902;42.130;24.732;2023-04-28T06:58:21;99946.97;;;20.35;30.70
5755;BME280;2902;42.130;24.732;2023-04-28T07:00:47;99941.06;;;20.38;28.50
5755;BME280;2902;42.130;24.732;2023-04-28T07:03:14;99943.06;;;21.07;29.18
5755;BME280;2902;42.130;24.732;2023-04-28T07:05:41;99951.50;;;21.90;27.44
5755;BME280;2902;42.130;24.732;2023-04-28T07:08:09;99951.53;;;21.95;25.98
5755;BME280;2902;42.130;24.732;2023-04-28T07:10:36;99948.69;;;21.54;26.00
5755;BME280;2902;42.130;24.732;2023-04-28T07:13:03;99939.72;;;21.22;26.20
5755;BME280;2902;42.130;24.732;2023-04-28T07:15:29;99945.06;;;21.17;26.39
5755;BME280;2902;42.130;24.732;2023-04-28T07:17:56;99943.91;;;21.34;26.50
5755;BME280;2902;42.130;24.732;2023-04-28T07:20:23;99939.63;;;21.38;26.07
5755;BME280;2902;42.130;24.732;2023-04-28T07:22:50;99942.38;;;20.95;26.43
5755;BME280;2902;42.130;24.732;2023-04-28T07:25:18;99946.22;;;20.99;26.79
5755;BME280;2902;42.130;24.732;2023-04-28T07:27:45;99940.00;;;20.99;27.34
5755;BME280;2902;42.130;24.732;2023-04-28T07:30:12;99945.94;;;21.22;25.54
5755;BME280;2902;42.130;24.732;2023-04-28T07:32:39;99952.53;;;20.88;26.85
5755;BME280;2902;42.130;24.732;2023-04-28T07:35:06;99943.59;;;21.04;26.20
5755;BME280;2902;42.130;24.732;2023-04-28T07:37:33;99938.47;;;20.86;28.24
5755;BME280;2902;42.130;24.732;2023-04-28T07:40:00;99932.69;;;21.47;26.74
5755;BME280;2902;42.130;24.732;2023-04-28T07:42:28;99936.81;;;21.81;25.95
5755;BME280;2902;42.130;24.732;2023-04-28T07:44:55;99929.69;;;22.02;26.97
5755;BME280;2902;42.130;24.732;2023-04-28T07:47:22;99917.31;;;22.52;26.19
5755;BME280;2902;42.130;24.732;2023-04-28T07:49:49;99936.91;;;22.69;25.66
5755;BME280;2902;42.130;24.732;2023-04-28T07:52:16;99943.38;;;22.63;25.24
5755;BME280;2902;42.130;24.732;2023-04-28T07:54:42;99935.59;;;22.35;25.59
5755;BME280;2902;42.130;24.732;2023-04-28T07:57:09;99927.22;;;22.00;25.59
5755;BME280;2902;42.130;24.732;2023-04-28T07:59:37;99917.66;;;22.24;27.27
5755;BME280;2902;42.130;24.732;2023-04-28T08:02:04;99923.44;;;22.01;25.64
5755;BME280;2902;42.130;24.732;2023-04-28T08:04:32;99918.00;;;22.38;26.63
5755;BME280;2902;42.130;24.732;2023-04-28T08:06:59;99919.84;;;22.27;25.31
5755;BME280;2902;42.130;24.732;2023-04-28T08:09:26;99925.97;;;22.54;26.21
5755;BME280;2902;42.130;24.732;2023-04-28T08:11:52;99917.19;;;22.84;26.57
5755;BME280;2902;42.130;24.732;2023-04-28T08:14:19;99924.69;;;23.43;24.97
5755;BME280;2902;42.130;24.732;2023-04-28T08:16:48;99912.22;;;23.37;24.94
5755;BME280;2902;42.130;24.732;2023-04-28T08:19:14;99913.88;;;23.58;24.04
5755;BME280;2902;42.130;24.732;2023-04-28T08:21:41;99916.31;;;23.85;25.75
5755;BME280;2902;42.130;24.732;2023-04-28T08:24:08;99922.00;;;24.13;23.27
5755;BME280;2902;42.130;24.732;2023-04-28T08:26:35;99922.56;;;23.70;24.00
5755;BME280;2902;42.130;24.732;2023-04-28T08:29:02;99903.84;;;23.89;23.74
5755;BME280;2902;42.130;24.732;2023-04-28T08:31:29;99898.13;;;24.05;24.05
5755;BME280;2902;42.130;24.732;2023-04-28T08:33:57;99917.13;;;23.90;23.38
5755;BME280;2902;42.130;24.732;2023-04-28T08:36:24;99910.06;;;23.69;24.17
5755;BME280;2902;42.130;24.732;2023-04-28T08:38:56;99893.25;;;24.07;25.52
5755;BME280;2902;42.130;24.732;2023-04-28T08:41:23;99903.81;;;24.19;24.80
5755;BME280;2902;42.130;24.732;2023-04-28T08:43:52;99875.91;;;23.78;24.87
5755;BME280;2902;42.130;24.732;2023-04-28T08:46:20;99904.06;;;24.37;24.90
5755;BME280;2902;42.130;24.732;2023-04-28T08:48:48;99895.41;;;25.04;24.01
5755;BME280;2902;42.130;24.732;2023-04-28T08:51:25;99896.38;;;24.54;22.79
5755;BME280;2902;42.130;24.732;2023-04-28T08:53:54;99888.84;;;24.36;23.39
5755;BME280;2902;42.130;24.732;2023-04-28T08:56:25;99895.59;;;24.44;22.79
5755;BME280;2902;42.130;24.732;2023-04-28T08:58:52;99888.84;;;24.41;22.96
5755;BME280;2902;42.130;24.732;2023-04-28T09:01:20;99884.44;;;24.50;23.38
5755;BME280;2902;42.130;24.732;2023-04-28T09:03:47;99884.78;;;25.02;23.47
5755;BME280;2902;42.130;24.732;2023-04-28T09:06:15;99877.84;;;25.30;23.48
5755;BME280;2902;42.130;24.732;2023-04-28T09:08:43;99887.84;;;25.40;22.37
5755;BME280;2902;42.130;24.732;2023-04-28T09:11:10;99884.16;;;25.16;23.36
5755;BME280;2902;42.130;24.732;2023-04-28T09:13:38;99881.22;;;25.56;22.78
5755;BME280;2902;42.130;24.732;2023-04-28T09:16:06;99868.50;;;25.75;22.30
5755;BME280;2902;42.130;24.732;2023-04-28T09:18:32;99869.31;;;26.09;22.96
5755;BME280;2902;42.130;24.732;2023-04-28T09:21:04;99871.91;;;26.47;22.09
5755;BME280;2902;42.130;24.732;2023-04-28T09:23:30;99876.47;;;26.52;21.77
5755;BME280;2902;42.130;24.732;2023-04-28T09:26:02;99879.25;;;25.95;21.43
5755;BME280;2902;42.130;24.732;2023-04-28T09:28:29;99864.16;;;25.74;22.00
5755;BME280;2902;42.130;24.732;2023-04-28T09:30:56;99869.91;;;25.39;22.25
5755;BME280;2902;42.130;24.732;2023-04-28T09:33:23;99860.72;;;25.25;22.25
5755;BME280;2902;42.130;24.732;2023-04-28T09:35:50;99861.81;;;25.24;24.15
5755;BME280;2902;42.130;24.732;2023-04-28T09:38:18;99848.06;;;25.05;23.18
5755;BME280;2902;42.130;24.732;2023-04-28T09:40:49;99856.75;;;25.07;22.44
5755;BME280;2902;42.130;24.732;2023-04-28T09:43:28;99861.13;;;25.08;23.04
5755;BME280;2902;42.130;24.732;2023-04-28T09:45:57;99852.09;;;25.18;22.56
5755;BME280;2902;42.130;24.732;2023-04-28T09:48:28;99851.53;;;25.16;22.60
5755;BME280;2902;42.130;24.732;2023-04-28T09:50:55;99851.72;;;25.34;22.59
5755;BME280;2902;42.130;24.732;2023-04-28T09:53:24;99853.81;;;24.98;22.27
5755;BME280;2902;42.130;24.732;2023-04-28T09:55:51;99851.91;;;25.04;21.82
5755;BME280;2902;42.130;24.732;2023-04-28T09:58:19;99839.00;;;25.20;23.55
5755;BME280;2902;42.130;24.732;2023-04-28T10:00:51;99837.81;;;24.92;22.79
5755;BME280;2902;42.130;24.732;2023-04-28T10:03:21;99840.09;;;24.70;23.14
5755;BME280;2902;42.130;24.732;2023-04-28T10:05:49;99831.53;;;24.43;23.01
5755;BME280;2902;42.130;24.732;2023-04-28T10:08:18;99829.06;;;24.46;23.72
5755;BME280;2902;42.130;24.732;2023-04-28T10:10:46;99817.94;;;24.43;23.35
5755;BME280;2902;42.130;24.732;2023-04-28T10:13:15;99827.50;;;24.25;22.78
5755;BME280;2902;42.130;24.732;2023-04-28T10:15:42;99834.88;;;24.10;22.74
5755;BME280;2902;42.130;24.732;2023-04-28T10:18:11;99820.78;;;24.13;22.72
5755;BME280;2902;42.130;24.732;2023-04-28T10:20:39;99809.69;;;23.74;23.63
5755;BME280;2902;42.130;24.732;2023-04-28T10:23:24;99817.84;;;23.54;23.16
5755;BME280;2902;42.130;24.732;2023-04-28T10:25:57;99811.34;;;23.50;23.50
5755;BME280;2902;42.130;24.732;2023-04-28T10:28:24;99811.06;;;23.57;23.62
5755;BME280;2902;42.130;24.732;2023-04-28T10:31:08;99802.91;;;23.67;24.50
5755;BME280;2902;42.130;24.732;2023-04-28T10:33:37;99799.94;;;23.68;23.72
5755;BME280;2902;42.130;24.732;2023-04-28T10:36:05;99799.38;;;23.71;23.13
5755;BME280;2902;42.130;24.732;2023-04-28T10:38:32;99801.84;;;23.38;23.90
5755;BME280;2902;42.130;24.732;2023-04-28T10:40:59;99803.59;;;22.57;24.36
5755;BME280;2902;42.130;24.732;2023-04-28T10:43:37;99796.56;;;22.51;24.77
5755;BME280;2902;42.130;24.732;2023-04-28T10:46:06;99798.47;;;22.66;24.73
5755;BME280;2902;42.130;24.732;2023-04-28T10:48:54;99790.16;;;22.92;25.89
5755;BME280;2902;42.130;24.732;2023-04-28T10:51:31;99794.47;;;22.88;24.26
5755;BME280;2902;42.130;24.732;2023-04-28T10:54:13;99788.56;;;23.21;26.45
5755;BME280;2902;42.130;24.732;2023-04-28T10:57:19;99780.38;;;23.76;25.66
5755;BME280;2902;42.130;24.732;2023-04-28T10:59:49;99783.53;;;24.18;22.85
5755;BME280;2902;42.130;24.732;2023-04-28T11:02:40;99770.66;;;24.44;23.71
5755;BME280;2902;42.130;24.732;2023-04-28T11:05:12;99775.56;;;24.47;23.22
5755;BME280;2902;42.130;24.732;2023-04-28T11:07:40;99779.81;;;23.84;23.08
5755;BME280;2902;42.130;24.732;2023-04-28T11:10:07;99777.66;;;23.76;25.08
5755;BME280;2902;42.130;24.732;2023-04-28T11:12:34;99782.53;;;23.94;25.11
5755;BME280;2902;42.130;24.732;2023-04-28T11:15:11;99779.88;;;23.49;23.42
5755;BME280;2902;42.130;24.732;2023-04-28T11:17:39;99786.09;;;23.70;24.19
5755;BME280;2902;42.130;24.732;2023-04-28T11:20:12;99770.88;;;23.79;23.24
5755;BME280;2902;42.130;24.732;2023-04-28T11:22:40;99775.50;;;23.73;23.02
5755;BME280;2902;42.130;24.732;2023-04-28T11:25:08;99780.13;;;23.43;23.82
5755;BME280;2902;42.130;24.732;2023-04-28T11:27:34;99769.56;;;23.51;24.32
5755;BME280;2902;42.130;24.732;2023-04-28T11:30:02;99767.69;;;23.52;24.28
5755;BME280;2902;42.130;24.732;2023-04-28T11:32:31;99761.97;;;23.63;23.32
5755;BME280;2902;42.130;24.732;2023-04-28T11:34:58;99760.88;;;23.74;23.16
5755;BME280;2902;42.130;24.732;2023-04-28T11:37:26;99764.09;;;23.91;22.99
5755;BME280;2902;42.130;24.732;2023-04-28T11:39:53;99763.56;;;23.74;23.31
5755;BME280;2902;42.130;24.732;2023-04-28T11:42:20;99752.22;;;23.42;24.40
5755;BME280;2902;42.130;24.732;2023-04-28T11:44:50;99742.72;;;23.50;24.72
5755;BME280;2902;42.130;24.732;2023-04-28T11:47:27;99751.09;;;23.78;24.48
5755;BME280;2902;42.130;24.732;2023-04-28T11:49:55;99746.19;;;23.95;23.81
5755;BME280;2902;42.130;24.732;2023-04-28T11:52:22;99746.09;;;24.10;23.48
5755;BME280;2902;42.130;24.732;2023-04-28T11:54:53;99734.63;;;24.28;23.68
5755;BME280;2902;42.130;24.732;2023-04-28T11:57:22;99735.72;;;24.22;22.99
5755;BME280;2902;42.130;24.732;2023-04-28T11:59:50;99737.47;;;24.03;23.25
5755;BME280;2902;42.130;24.732;2023-04-28T12:02:24;99732.53;;;24.10;24.05
5755;BME280;2902;42.130;24.732;2023-04-28T12:04:52;99733.06;;;24.17;23.57
5755;BME280;2902;42.130;24.732;2023-04-28T12:07:19;99721.19;;;24.03;24.12
5755;BME280;2902;42.130;24.732;2023-04-28T12:09:47;99719.06;;;23.80;24.54
5755;BME280;2902;42.130;24.732;2023-04-28T12:12:27;99709.00;;;23.86;25.36
5755;BME280;2902;42.130;24.732;2023-04-28T12:14:55;99713.84;;;24.09;24.77
5755;BME280;2902;42.130;24.732;2023-04-28T12:17:23;99712.19;;;24.08;23.78
5755;BME280;2902;42.130;24.732;2023-04-28T12:19:50;99691.53;;;24.12;24.67
5755;BME280;2902;42.130;24.732;2023-04-28T12:22:17;99704.03;;;24.13;23.66
5755;BME280;2902;42.130;24.732;2023-04-28T12:24:44;99695.69;;;23.84;22.97
5755;BME280;2902;42.130;24.732;2023-04-28T12:27:16;99702.31;;;23.48;24.34
5755;BME280;2902;42.130;24.732;2023-04-28T12:29:46;99686.56;;;23.55;24.72
5755;BME280;2902;42.130;24.732;2023-04-28T12:32:13;99684.97;;;23.54;24.83
5755;BME280;2902;42.130;24.732;2023-04-28T12:34:40;99689.84;;;23.12;23.88
5755;BME280;2902;42.130;24.732;2023-04-28T12:37:07;99687.44;;;22.91;24.65
5755;BME280;2902;42.130;24.732;2023-04-28T12:39:35;99676.34;;;22.97;23.69
5755;BME280;2902;42.130;24.732;2023-04-28T12:42:02;99683.34;;;22.58;24.18
5755;BME280;2902;42.130;24.732;2023-04-28T12:44:36;99671.16;;;22.56;24.58
5755;BME280;2902;42.130;24.732;2023-04-28T12:47:04;99684.63;;;22.31;25.34
5755;BME280;2902;42.130;24.732;2023-04-28T12:49:32;99669.75;;;22.28;25.60
5755;BME280;2902;42.130;24.732;2023-04-28T12:51:59;99668.09;;;22.17;25.41
5755;BME280;2902;42.130;24.732;2023-04-28T12:54:25;99670.78;;;22.07;26.09
5755;BME280;2902;42.130;24.732;2023-04-28T12:56:52;99662.13;;;22.10;26.07
5755;BME280;2902;42.130;24.732;2023-04-28T12:59:20;99651.00;;;21.97;25.97
5755;BME280;2902;42.130;24.732;2023-04-28T13:01:48;99657.66;;;21.74;26.46
5755;BME280;2902;42.130;24.732;2023-04-28T13:04:15;99642.00;;;21.81;26.39
5755;BME280;2902;42.130;24.732;2023-04-28T13:06:41;99650.16;;;21.86;26.62
5755;BME280;2902;42.130;24.732;2023-04-28T13:09:09;99644.19;;;21.89;26.66
5755;BME280;2902;42.130;24.732;2023-04-28T13:11:36;99640.31;;;21.65;27.29
5755;BME280;2902;42.130;24.732;2023-04-28T13:14:03;99628.44;;;21.71;27.38
5755;BME280;2902;42.130;24.732;2023-04-28T13:16:30;99616.50;;;21.67;27.74